Time;durP1;ratioP1;P1;durP2;ratioP2;P2;SDS_P1;SDS_P2;PMS_P1;PMS_P2;Temp;Humidity;BMP_temperature;BMP_pressure;BME280_temperature;BME280_humidity;BME280_pressure;Samples;Min_cycle;Max_cycle;Signal;HPM_P1;HPM_P2
2021/05/21 00:01:56;;;;;;;;;;;;;;;;;;;;;
2021/05/21 00:08:42;;;;;;;14.67;11.17;;;;;;;7.98;77.91;98755.70;258003;1111;22854;-69
2021/05/21 00:15:58;;;;;;;;;;;;;;;;;;;;;
2021/05/21 00:22:51;;;;;;;21.33;13.33;;;;;;;7.83;77.61;98739.73;258005;1105;28910;-68
2021/05/21 00:36:03;;;;;;;21.13;14.73;;;;;;;7.58;78.39;98738.71;258129;1111;22780;-69
2021/05/21 00:42:05;;;;;;;19.65;13.40;;;;;;;7.49;79.03;98743.01;258411;1106;22818;-69
2021/05/21 00:48:24;;;;;;;;;;;;;;;;;;;;;
2021/05/21 00:55:18;;;;;;;21.40;13.80;;;;;;;7.40;79.37;98742.76;258351;1103;22802;-68
2021/05/21 01:02:05;;;;;;;22.77;13.03;;;;;;;7.37;79.92;98740.61;259023;1109;22787;-69
2021/05/21 01:08:41;;;;;;;;;;;;;;;;;;;;;
2021/05/21 01:15:48;;;;;;;18.53;12.93;;;;;;;7.34;79.91;98733.15;258522;1110;22813;-69
2021/05/21 01:22:04;;;;;;;;;;;;;;;;;;;;;
2021/05/21 01:35:37;;;;;;;19.65;13.95;;;;;;;7.39;79.93;98695.84;258147;1105;25912;-69
2021/05/21 01:49:42;;;;;;;29.07;19.80;;;;;;;7.40;80.13;98692.13;258019;1110;22951;-69
2021/05/21 01:56:00;;;;;;;;;;;;;;;;;;;;;
2021/05/21 02:02:02;;;;;;;27.30;20.60;;;;;;;7.52;80.16;98702.48;258415;1103;22817;-69
2021/05/21 02:08:39;;;;;;;;;;;;;;;;;;;;;
2021/05/21 02:14:56;;;;;;;27.23;21.57;;;;;;;7.38;79.81;98699.57;258556;1108;22777;-69
2021/05/21 02:21:05;;;;;;;;;;;;;;;;;;;;;
2021/05/21 02:27:43;;;;;;;;;;;;;;;;;;;;;
2021/05/21 02:41:47;;;;;;;;;;;;;;;;;;;;;
2021/05/21 02:47:42;;;;;;;23.65;17.60;;;;;;;7.22;80.56;98672.16;258292;1103;22810;-69
2021/05/21 02:53:14;;;;;;;23.37;15.17;;;;;;;7.25;80.38;98678.82;258429;1103;22873;-69
2021/05/21 02:58:32;;;;;;;18.63;14.20;;;;;;;7.23;81.22;98678.27;259078;1103;23015;-70
2021/05/21 03:03:36;;;;;;;18.40;12.57;;;;;;;7.20;81.12;98671.61;258434;1103;27269;-68
2021/05/21 03:09:51;;;;;;;19.33;13.27;;;;;;;7.16;80.47;98679.36;258627;1103;22804;-68
2021/05/21 03:15:02;;;;;;;20.00;12.77;;;;;;;7.09;80.79;98673.48;258275;1103;22952;-69
2021/05/21 03:21:49;;;;;;;;;;;;;;;;;;;;;
2021/05/21 03:27:37;;;;;;;17.03;12.03;;;;;;;6.99;81.57;98671.62;259228;1103;25942;-69
2021/05/21 03:40:58;;;;;;;15.65;11.10;;;;;;;7.11;80.76;98663.37;258096;1110;22865;-69
2021/05/21 03:54:29;;;;;;;14.83;10.93;;;;;;;7.61;81.58;98652.06;258334;1110;21474;-68
2021/05/21 04:01:16;;;;;;;15.53;12.60;;;;;;;7.96;80.84;98651.16;258324;1103;24305;-68
2021/05/21 04:08:09;;;;;;;16.57;11.70;;;;;;;8.27;80.35;98650.99;258036;1105;22816;-69
2021/05/21 04:14:53;;;;;;;15.20;10.80;;;;;;;8.55;80.48;98648.72;258284;1103;22790;-68
2021/05/21 04:20:54;;;;;;;13.10;9.80;;;;;;;8.74;80.01;98646.16;257974;1110;22783;-68
2021/05/21 04:26:58;;;;;;;;;;;;;;;;;;;;;
2021/05/21 04:32:59;;;;;;;10.43;8.23;;;;;;;9.03;79.13;98640.05;258425;1111;22948;-68
2021/05/21 04:40:15;;;;;;;10.58;8.00;;;;;;;9.12;79.44;98638.38;257471;1112;23054;-69
2021/05/21 04:53:06;;;;;;;11.15;8.15;;;;;;;9.57;79.00;98644.31;258171;1111;23223;-69
2021/05/21 04:58:32;;;;;;;10.20;9.10;;;;;;;9.68;78.60;98639.66;258195;1105;22783;-67
2021/05/21 05:31:47;;;;;;;7.50;6.70;;;;;;;10.66;77.79;98632.20;258262;1105;27340;-69
2021/05/21 05:52:35;;;;;;;;;;;;;;;;;;;;;
2021/05/21 06:06:33;;;;;;;5.10;4.20;;;;;;;12.77;72.66;98612.73;257280;1103;27368;-71
2021/05/21 06:13:00;;;;;;;5.37;4.17;;;;;;;13.04;71.53;98608.30;257062;1103;25970;-67
2021/05/21 06:19:26;;;;;;;4.90;4.40;;;;;;;13.25;70.33;98610.44;260156;1110;22791;-68
2021/05/21 06:27:23;;;;;;;5.83;3.70;;;;;;;13.25;69.59;98602.36;257098;1108;22848;-66
2021/05/21 06:33:19;;;;;;;5.40;4.10;;;;;;;13.09;68.94;98594.70;257281;1105;28976;-67
2021/05/21 07:21:30;;;;;;;2.80;2.35;;;;;;;14.41;63.27;98547.33;257116;1106;22953;-68
2021/05/21 07:28:24;;;;;;;2.35;1.85;;;;;;;14.44;60.79;98537.78;256939;1106;22830;-68
2021/05/21 07:35:24;;;;;;;2.35;1.65;;;;;;;14.56;60.91;98535.23;257600;1106;22803;-68
2021/05/21 07:49:05;;;;;;;;;;;;;;;;;;;;;
2021/05/21 08:02:22;;;;;;;4.10;1.10;;;;;;;15.39;57.06;98511.64;257518;1103;22844;-69
2021/05/21 08:09:19;;;;;;;1.90;1.30;;;;;;;15.68;54.39;98500.02;257847;1103;27600;-68
2021/05/21 08:16:23;;;;;;;1.05;0.85;;;;;;;15.71;52.98;98504.77;256851;1105;25810;-68
2021/05/21 08:23:16;;;;;;;2.67;1.00;;;;;;;15.86;54.57;98506.09;256922;1103;22779;-68
2021/05/21 08:30:13;;;;;;;;;;;;;;;;;;;;;
2021/05/21 08:36:56;;;;;;;1.90;1.30;;;;;;;15.95;53.48;98497.94;257932;1106;25502;-68
2021/05/21 08:43:51;;;;;;;;;;;;;;;;;;;;;
2021/05/21 08:51:04;;;;;;;;;;;;;;;;;;;;;
2021/05/21 09:04:41;;;;;;;;;;;;;;;;;;;;;
2021/05/21 09:11:54;;;;;;;;;;;;;;;;;;;;;
2021/05/21 09:19:03;;;;;;;2.55;1.40;;;;;;;17.33;52.15;98439.11;257627;1110;22786;-69
2021/05/21 09:25:58;;;;;;;2.15;1.15;;;;;;;17.81;52.15;98425.79;257651;1110;23006;-68
2021/05/21 09:59:58;;;;;;;;;;;;;;;;;;;;;
2021/05/21 10:19:59;;;;;;;;;;;;;;;;;;;;;
2021/05/21 10:26:38;;;;;;;;;;;;;;;;;;;;;
2021/05/21 10:33:26;;;;;;;3.50;1.60;;;;;;;18.87;41.94;98343.19;257842;1105;22899;-68
2021/05/21 10:40:41;;;;;;;0.83;0.60;;;;;;;19.00;42.42;98333.02;258026;1108;22783;-68
2021/05/21 10:47:59;;;;;;;1.35;1.20;;;;;;;19.26;43.95;98321.55;257792;1106;22803;-69
2021/05/21 10:55:00;;;;;;;;;;;;;;;;;;;;;
2021/05/21 11:16:36;;;;;;;3.60;1.50;;;;;;;19.36;41.26;98279.45;257762;1103;22844;-68
2021/05/21 11:22:40;;;;;;;2.40;1.00;;;;;;;19.53;40.56;98286.36;257439;1108;22847;-68
2021/05/21 11:28:18;;;;;;;3.45;2.00;;;;;;;19.75;39.00;98284.83;258982;1103;24316;-68
2021/05/21 11:34:39;;;;;;;3.10;1.10;;;;;;;19.74;40.40;98291.39;257798;1108;22816;-68
2021/05/21 11:40:59;;;;;;;0.80;0.70;;;;;;;19.91;38.46;98285.53;258469;1103;26265;-69
2021/05/21 11:46:18;;;;;;;1.90;0.60;;;;;;;20.10;39.11;98286.61;259586;1108;22810;-67
2021/05/21 11:52:05;;;;;;;1.60;1.50;;;;;;;20.20;36.15;98275.10;258017;1103;26146;-68
2021/05/21 12:04:15;;;;;;;;;;;;;;;;;;;;;
2021/05/21 12:24:04;;;;;;;1.30;0.90;;;;;;;20.41;36.87;98230.34;258030;1103;26267;-67
2021/05/21 12:31:07;;;;;;;;;;;;;;;;;;;;;
2021/05/21 12:38:02;;;;;;;;;;;;;;;;;;;;;
2021/05/21 12:44:44;;;;;;;;;;;;;;;;;;;;;
2021/05/21 12:50:49;;;;;;;1.50;0.85;;;;;;;20.67;38.05;98199.61;258069;1110;22800;-68
2021/05/21 12:56:32;;;;;;;3.07;0.80;;;;;;;20.75;38.16;98198.57;258157;1108;22792;-69
2021/05/21 13:02:17;;;;;;;;;;;;;;;;;;;;;
2021/05/21 13:14:50;;;;;;;2.70;0.93;;;;;;;20.81;35.53;98201.75;258171;1110;22782;-68
2021/05/21 13:20:22;;;;;;;4.18;0.98;;;;;;;20.57;36.68;98179.27;258447;1103;25838;-69
2021/05/21 13:26:10;;;;;;;0.70;0.70;;;;;;;20.44;36.41;98194.24;258078;1101;25635;-69
2021/05/21 13:32:39;;;;;;;1.23;1.00;;;;;;;20.45;37.56;98182.22;258208;1103;22783;-68
2021/05/21 13:39:00;;;;;;;1.55;1.20;;;;;;;20.57;37.60;98197.55;258027;1103;25973;-68
2021/05/21 13:45:07;;;;;;;;;;;;;;;;;;;;;
2021/05/21 13:59:05;;;;;;;;;;;;;;;;;;;;;
2021/05/21 14:05:51;;;;;;;1.90;0.90;;;;;;;20.02;37.02;98178.89;257488;1103;26280;-68
2021/05/21 14:12:04;;;;;;;1.17;0.90;;;;;;;19.98;38.32;98174.20;258466;1103;22851;-68
2021/05/21 14:18:43;;;;;;;1.10;0.70;;;;;;;20.15;37.98;98150.36;257947;1111;22809;-68
2021/05/21 14:32:37;;;;;;;;;;;;;;;;;;;;;
2021/05/21 14:39:05;;;;;;;2.83;1.00;;;;;;;20.01;38.07;98129.19;259601;1105;22805;-67
2021/05/21 14:45:32;;;;;;;1.20;0.87;;;;;;;20.10;37.88;98147.95;258196;1103;22952;-69
2021/05/21 14:51:10;;;;;;;1.17;0.80;;;;;;;19.94;37.87;98139.97;258315;1103;22796;-69
2021/05/21 14:57:24;;;;;;;0.90;0.90;;;;;;;19.84;37.80;98144.09;258637;1103;22782;-68
2021/05/21 15:03:26;;;;;;;1.75;1.10;;;;;;;19.61;37.70;98133.98;259083;1103;26344;-69
2021/05/21 15:09:20;;;;;;;0.80;0.80;;;;;;;19.43;39.11;98130.20;258701;1103;22849;-69
2021/05/21 15:27:37;;;;;;;;;;;;;;;;;;;;;
2021/05/21 15:33:12;;;;;;;1.20;1.10;;;;;;;19.32;39.93;98109.10;258371;1111;22758;-68
2021/05/21 15:39:25;;;;;;;1.10;0.90;;;;;;;19.42;39.63;98107.71;258550;1110;22844;-68
2021/05/21 15:45:58;;;;;;;0.90;0.80;;;;;;;19.36;40.43;98103.71;258458;1105;25887;-67
2021/05/21 15:53:41;;;;;;;1.85;0.70;;;;;;;19.22;40.02;98098.83;258601;1111;22953;-68
2021/05/21 15:59:14;;;;;;;0.77;0.60;;;;;;;19.07;40.54;98091.59;258709;1103;22851;-68
2021/05/21 16:04:50;;;;;;;0.85;0.65;;;;;;;18.94;41.03;98080.94;258721;1105;27573;-68
2021/05/21 16:10:43;;;;;;;1.10;0.70;;;;;;;18.88;41.34;98079.64;258790;1110;22883;-68
2021/05/21 16:24:12;;;;;;;;;;;;;;;;;;;;;
2021/05/21 16:30:43;;;;;;;;;;;;;;;;;;;;;
2021/05/21 16:44:25;;;;;;;2.50;1.00;;;;;;;18.18;42.08;98064.34;258486;1110;22965;-69
2021/05/21 16:58:31;;;;;;;3.25;1.60;;;;;;;17.80;43.55;98055.78;258057;1103;23025;-68
2021/05/21 17:53:34;;;;;;;4.63;2.63;;;;;;;16.95;46.69;98050.70;258066;1103;23102;-68
2021/05/21 18:26:22;;;;;;;2.50;1.95;;;;;;;15.88;56.05;98084.45;258490;1110;21478;-68
2021/05/21 18:54:02;;;;;;;;;;;;;;;;;;;;;
2021/05/21 19:15:04;;;;;;;1.30;1.00;;;;;;;14.24;62.41;98122.47;258101;1103;27648;-68
2021/05/21 19:27:52;;;;;;;;;;;;;;;;;;;;;
2021/05/21 20:16:48;;;;;;;;;;;;;;;;;;;;;
2021/05/21 20:31:00;;;;;;;6.20;3.55;;;;;;;13.30;68.56;98101.91;258279;1103;26120;-68
2021/05/21 22:15:05;;;;;;;5.80;3.90;;;;;;;12.95;70.33;98024.84;258312;1106;22865;-67
2021/05/21 22:29:06;;;;;;;;;;;;;;;;;;;;;
2021/05/21 22:36:03;;;;;;;;;;;;;;;;;;;;;
2021/05/21 22:49:52;;;;;;;;;;;;;;;;;;;;;
2021/05/21 22:56:26;;;;;;;8.67;4.23;;;;;;;12.78;70.85;98039.13;259078;1103;27635;-70
2021/05/21 23:10:01;;;;;;;7.95;5.05;;;;;;;12.65;71.59;98014.04;259591;1103;25864;-71
2021/05/21 23:16:59;;;;;;;8.75;4.80;;;;;;;12.68;71.92;97991.12;259372;1103;22821;-70
2021/05/21 23:30:44;;;;;;;;;;;;;;;;;;;;;
2021/05/21 23:45:01;;;;;;;;;;;;;;;;;;;;;
2021/05/21 23:51:52;;;;;;;8.95;4.50;;;;;;;12.45;73.72;97967.17;259346;1108;24616;-72
2021/05/21 23:58:44;;;;;;;;;;;;;;;12.46;73.64;97968.72;259041;1109;24196;-73
